Foothill Ranch, California
Current Conditions -  °F | °C
As of 3:53 PM on Friday 24 Oct 2014 (Local Time) from KSNA Reporting Station
Clear Clear  
Wind Chill: 82°   Ceiling: Unl
Heat Index: 82°   Visibility: 10mi
Dew Point: 54°   Wind: 5mph
Humidity: 38%   Direction: 210°SSW
Pressure: 29.92"   Gusts: NA
Location:  33.62°N, 117.69°W
Report Text: KSNA 242253Z 21004KT 10SM CLR 28/12 A2992 RMK AO2 SLP132 T02780122
Loading
Personal Weather Stations






























Interactive Weather Map
Tropical Storm Tracking
New forecast layout! Learn more

10-Day Weather Forecast

Advertisements
Track Severe Weather on mobile